sensor_id;sensor_type;location;lat;lon;timestamp;temperature;humidity
46117;DHT22;32591;48.102;11.772;2023-03-19T00:02:24;7.90;99.90
46117;DHT22;32591;48.102;11.772;2023-03-19T00:04:51;7.90;99.90
46117;DHT22;32591;48.102;11.772;2023-03-19T00:07:18;7.90;99.90
46117;DHT22;32591;48.102;11.772;2023-03-19T00:09:44;7.90;99.90
46117;DHT22;32591;48.102;11.772;2023-03-19T00:12:12;7.90;99.90
46117;DHT22;32591;48.102;11.772;2023-03-19T00:14:39;7.90;99.90
46117;DHT22;32591;48.102;11.772;2023-03-19T00:17:08;7.90;99.90
46117;DHT22;32591;48.102;11.772;2023-03-19T00:19:34;7.90;99.90
46117;DHT22;32591;48.102;11.772;2023-03-19T00:22:01;7.90;99.90
46117;DHT22;32591;48.102;11.772;2023-03-19T00:24:28;7.90;99.90
46117;DHT22;32591;48.102;11.772;2023-03-19T00:26:55;7.90;99.90
46117;DHT22;32591;48.102;11.772;2023-03-19T00:29:22;7.90;99.90
46117;DHT22;32591;48.102;11.772;2023-03-19T00:31:49;7.90;99.90
46117;DHT22;32591;48.102;11.772;2023-03-19T00:34:17;7.90;99.90
46117;DHT22;32591;48.102;11.772;2023-03-19T00:36:44;7.80;99.90
46117;DHT22;32591;48.102;11.772;2023-03-19T00:39:12;7.80;99.90
46117;DHT22;32591;48.102;11.772;2023-03-19T00:41:40;7.80;99.90
46117;DHT22;32591;48.102;11.772;2023-03-19T00:44:14;7.70;99.90
46117;DHT22;32591;48.102;11.772;2023-03-19T00:46:42;7.70;99.90
46117;DHT22;32591;48.102;11.772;2023-03-19T00:49:08;7.70;99.90
46117;DHT22;32591;48.102;11.772;2023-03-19T00:51:37;7.60;99.90
46117;DHT22;32591;48.102;11.772;2023-03-19T00:54:08;7.60;99.90
46117;DHT22;32591;48.102;11.772;2023-03-19T00:56:36;7.60;99.90
46117;DHT22;32591;48.102;11.772;2023-03-19T00:59:03;7.50;99.90
46117;DHT22;32591;48.102;11.772;2023-03-19T01:01:29;7.50;99.90
46117;DHT22;32591;48.102;11.772;2023-03-19T01:03:56;7.40;99.90
46117;DHT22;32591;48.102;11.772;2023-03-19T01:06:23;7.40;99.90
46117;DHT22;32591;48.102;11.772;2023-03-19T01:08:52;7.40;99.90
46117;DHT22;32591;48.102;11.772;2023-03-19T01:11:18;7.30;99.90
46117;DHT22;32591;48.102;11.772;2023-03-19T01:13:45;7.30;99.90
46117;DHT22;32591;48.102;11.772;2023-03-19T01:16:12;7.30;99.90
46117;DHT22;32591;48.102;11.772;2023-03-19T01:18:39;7.20;99.90
46117;DHT22;32591;48.102;11.772;2023-03-19T01:21:06;7.20;99.90
46117;DHT22;32591;48.102;11.772;2023-03-19T01:23:34;7.20;99.90
46117;DHT22;32591;48.102;11.772;2023-03-19T01:26:02;7.20;99.90
46117;DHT22;32591;48.102;11.772;2023-03-19T01:28:29;7.20;99.90
46117;DHT22;32591;48.102;11.772;2023-03-19T01:30:57;7.20;99.90
46117;DHT22;32591;48.102;11.772;2023-03-19T01:33:25;7.20;99.90
46117;DHT22;32591;48.102;11.772;2023-03-19T01:35:51;7.10;99.90
46117;DHT22;32591;48.102;11.772;2023-03-19T01:38:18;7.10;99.90
46117;DHT22;32591;48.102;11.772;2023-03-19T01:40:45;7.10;99.90
46117;DHT22;32591;48.102;11.772;2023-03-19T01:43:15;7.00;99.90
46117;DHT22;32591;48.102;11.772;2023-03-19T01:45:44;7.00;99.90
46117;DHT22;32591;48.102;11.772;2023-03-19T01:48:15;7.00;99.90
46117;DHT22;32591;48.102;11.772;2023-03-19T01:50:45;7.00;99.90
46117;DHT22;32591;48.102;11.772;2023-03-19T01:53:15;6.90;99.90
46117;DHT22;32591;48.102;11.772;2023-03-19T01:55:43;6.90;99.90
46117;DHT22;32591;48.102;11.772;2023-03-19T01:58:10;7.00;99.90
46117;DHT22;32591;48.102;11.772;2023-03-19T02:00:39;6.90;99.90
46117;DHT22;32591;48.102;11.772;2023-03-19T02:03:06;6.90;99.90
46117;DHT22;32591;48.102;11.772;2023-03-19T02:05:33;6.90;99.90
46117;DHT22;32591;48.102;11.772;2023-03-19T02:08:01;6.90;99.90
46117;DHT22;32591;48.102;11.772;2023-03-19T02:10:30;6.90;99.90
46117;DHT22;32591;48.102;11.772;2023-03-19T02:12:57;6.90;99.90
46117;DHT22;32591;48.102;11.772;2023-03-19T02:15:23;6.80;99.90
46117;DHT22;32591;48.102;11.772;2023-03-19T02:17:52;6.80;99.90
46117;DHT22;32591;48.102;11.772;2023-03-19T02:20:21;6.80;99.90
46117;DHT22;32591;48.102;11.772;2023-03-19T02:22:54;6.80;99.90
46117;DHT22;32591;48.102;11.772;2023-03-19T02:25:26;6.70;99.90
46117;DHT22;32591;48.102;11.772;2023-03-19T02:27:57;6.70;99.90
46117;DHT22;32591;48.102;11.772;2023-03-19T02:30:26;6.70;99.90
46117;DHT22;32591;48.102;11.772;2023-03-19T02:32:53;6.70;99.90
46117;DHT22;32591;48.102;11.772;2023-03-19T02:35:20;6.70;99.90
46117;DHT22;32591;48.102;11.772;2023-03-19T02:37:47;6.70;99.90
46117;DHT22;32591;48.102;11.772;2023-03-19T02:40:15;6.70;99.90
46117;DHT22;32591;48.102;11.772;2023-03-19T02:42:44;6.70;99.90
46117;DHT22;32591;48.102;11.772;2023-03-19T02:45:12;6.60;99.90
46117;DHT22;32591;48.102;11.772;2023-03-19T02:47:40;7.30;99.90
46117;DHT22;32591;48.102;11.772;2023-03-19T02:50:07;6.60;99.90
46117;DHT22;32591;48.102;11.772;2023-03-19T02:52:35;6.60;99.90
46117;DHT22;32591;48.102;11.772;2023-03-19T02:55:02;6.60;99.90
46117;DHT22;32591;48.102;11.772;2023-03-19T02:57:29;6.70;99.90
46117;DHT22;32591;48.102;11.772;2023-03-19T02:59:55;6.50;99.90
46117;DHT22;32591;48.102;11.772;2023-03-19T03:02:23;6.50;99.90
46117;DHT22;32591;48.102;11.772;2023-03-19T03:04:51;6.50;99.90
46117;DHT22;32591;48.102;11.772;2023-03-19T03:07:17;6.40;99.90
46117;DHT22;32591;48.102;11.772;2023-03-19T03:09:44;6.50;99.90
46117;DHT22;32591;48.102;11.772;2023-03-19T03:12:11;6.40;99.90
46117;DHT22;32591;48.102;11.772;2023-03-19T03:14:38;6.40;99.90
46117;DHT22;32591;48.102;11.772;2023-03-19T03:17:05;6.40;99.90
46117;DHT22;32591;48.102;11.772;2023-03-19T03:19:34;6.40;99.90
46117;DHT22;32591;48.102;11.772;2023-03-19T03:22:01;6.40;99.90
46117;DHT22;32591;48.102;11.772;2023-03-19T03:24:28;6.50;99.90
46117;DHT22;32591;48.102;11.772;2023-03-19T03:26:55;6.30;99.90
46117;DHT22;32591;48.102;11.772;2023-03-19T03:29:21;6.30;99.90
46117;DHT22;32591;48.102;11.772;2023-03-19T03:31:48;6.20;99.90
46117;DHT22;32591;48.102;11.772;2023-03-19T03:34:15;6.20;99.90
46117;DHT22;32591;48.102;11.772;2023-03-19T03:36:43;6.30;99.90
46117;DHT22;32591;48.102;11.772;2023-03-19T03:39:11;6.20;99.90
46117;DHT22;32591;48.102;11.772;2023-03-19T03:41:38;6.20;99.90
46117;DHT22;32591;48.102;11.772;2023-03-19T03:44:05;6.20;99.90
46117;DHT22;32591;48.102;11.772;2023-03-19T03:46:33;6.20;99.90
46117;DHT22;32591;48.102;11.772;2023-03-19T03:48:59;6.20;99.90
46117;DHT22;32591;48.102;11.772;2023-03-19T03:51:26;6.10;99.90
46117;DHT22;32591;48.102;11.772;2023-03-19T03:53:55;6.20;99.90
46117;DHT22;32591;48.102;11.772;2023-03-19T03:56:21;6.10;99.90
46117;DHT22;32591;48.102;11.772;2023-03-19T03:58:48;6.10;99.90
46117;DHT22;32591;48.102;11.772;2023-03-19T04:01:15;6.10;99.90
46117;DHT22;32591;48.102;11.772;2023-03-19T04:03:43;6.00;99.90
46117;DHT22;32591;48.102;11.772;2023-03-19T04:06:11;6.10;99.90
46117;DHT22;32591;48.102;11.772;2023-03-19T04:08:40;6.10;99.90
46117;DHT22;32591;48.102;11.772;2023-03-19T04:11:08;6.10;99.90
46117;DHT22;32591;48.102;11.772;2023-03-19T04:13:35;6.10;99.90
46117;DHT22;32591;48.102;11.772;2023-03-19T04:16:02;6.10;99.90
46117;DHT22;32591;48.102;11.772;2023-03-19T04:18:29;6.10;99.90
46117;DHT22;32591;48.102;11.772;2023-03-19T04:20:56;6.10;99.90
46117;DHT22;32591;48.102;11.772;2023-03-19T04:23:23;6.10;99.90
46117;DHT22;32591;48.102;11.772;2023-03-19T04:25:50;6.10;99.90
46117;DHT22;32591;48.102;11.772;2023-03-19T04:28:18;6.10;99.90
46117;DHT22;32591;48.102;11.772;2023-03-19T04:30:45;6.10;99.90
46117;DHT22;32591;48.102;11.772;2023-03-19T04:33:12;6.10;99.90
46117;DHT22;32591;48.102;11.772;2023-03-19T04:35:39;6.20;99.90
46117;DHT22;32591;48.102;11.772;2023-03-19T04:38:06;6.20;99.90
46117;DHT22;32591;48.102;11.772;2023-03-19T04:40:33;6.20;99.90
46117;DHT22;32591;48.102;11.772;2023-03-19T04:43:00;6.20;99.90
46117;DHT22;32591;48.102;11.772;2023-03-19T04:45:28;6.30;99.90
46117;DHT22;32591;48.102;11.772;2023-03-19T04:47:55;6.30;99.90
46117;DHT22;32591;48.102;11.772;2023-03-19T04:50:22;6.30;99.90
46117;DHT22;32591;48.102;11.772;2023-03-19T04:52:49;6.40;99.90
46117;DHT22;32591;48.102;11.772;2023-03-19T04:55:16;6.40;99.90
46117;DHT22;32591;48.102;11.772;2023-03-19T04:57:42;6.40;99.90
46117;DHT22;32591;48.102;11.772;2023-03-19T05:00:10;6.50;99.90
46117;DHT22;32591;48.102;11.772;2023-03-19T05:02:40;6.50;99.90
46117;DHT22;32591;48.102;11.772;2023-03-19T05:05:07;6.50;99.90
46117;DHT22;32591;48.102;11.772;2023-03-19T05:07:35;6.50;99.90
46117;DHT22;32591;48.102;11.772;2023-03-19T05:10:02;6.60;99.90
46117;DHT22;32591;48.102;11.772;2023-03-19T05:12:29;6.60;99.90
46117;DHT22;32591;48.102;11.772;2023-03-19T05:14:56;6.60;99.90
46117;DHT22;32591;48.102;11.772;2023-03-19T05:17:23;6.90;99.90
46117;DHT22;32591;48.102;11.772;2023-03-19T05:19:51;6.60;99.90
46117;DHT22;32591;48.102;11.772;2023-03-19T05:22:18;6.70;99.90
46117;DHT22;32591;48.102;11.772;2023-03-19T05:24:45;6.70;99.90
46117;DHT22;32591;48.102;11.772;2023-03-19T05:27:12;6.70;99.90
46117;DHT22;32591;48.102;11.772;2023-03-19T05:29:38;6.70;99.90
46117;DHT22;32591;48.102;11.772;2023-03-19T05:32:07;6.70;99.90
46117;DHT22;32591;48.102;11.772;2023-03-19T05:34:35;6.80;99.90
46117;DHT22;32591;48.102;11.772;2023-03-19T05:37:03;6.80;99.90
46117;DHT22;32591;48.102;11.772;2023-03-19T05:39:31;6.80;99.90
46117;DHT22;32591;48.102;11.772;2023-03-19T05:41:58;6.90;99.90
46117;DHT22;32591;48.102;11.772;2023-03-19T05:44:25;6.90;99.90
46117;DHT22;32591;48.102;11.772;2023-03-19T05:46:52;6.90;99.90
46117;DHT22;32591;48.102;11.772;2023-03-19T05:49:19;7.00;99.90
46117;DHT22;32591;48.102;11.772;2023-03-19T05:51:46;7.10;99.90
46117;DHT22;32591;48.102;11.772;2023-03-19T05:54:14;7.10;99.90
46117;DHT22;32591;48.102;11.772;2023-03-19T05:56:41;7.20;99.90
46117;DHT22;32591;48.102;11.772;2023-03-19T05:59:08;7.30;99.90
46117;DHT22;32591;48.102;11.772;2023-03-19T06:01:35;7.30;99.90
46117;DHT22;32591;48.102;11.772;2023-03-19T06:04:02;7.40;99.90
46117;DHT22;32591;48.102;11.772;2023-03-19T06:06:29;7.50;99.90
46117;DHT22;32591;48.102;11.772;2023-03-19T06:08:56;7.50;99.90
46117;DHT22;32591;48.102;11.772;2023-03-19T06:11:24;7.50;99.90
46117;DHT22;32591;48.102;11.772;2023-03-19T06:13:51;7.60;99.90
46117;DHT22;32591;48.102;11.772;2023-03-19T06:16:18;7.70;99.90
46117;DHT22;32591;48.102;11.772;2023-03-19T06:18:45;7.70;99.90
46117;DHT22;32591;48.102;11.772;2023-03-19T06:21:12;7.80;99.90
46117;DHT22;32591;48.102;11.772;2023-03-19T06:23:39;7.80;99.90
46117;DHT22;32591;48.102;11.772;2023-03-19T06:26:06;7.90;99.90
46117;DHT22;32591;48.102;11.772;2023-03-19T06:28:35;7.90;99.90
46117;DHT22;32591;48.102;11.772;2023-03-19T06:31:01;7.90;99.90
46117;DHT22;32591;48.102;11.772;2023-03-19T06:33:29;8.00;99.90
46117;DHT22;32591;48.102;11.772;2023-03-19T06:35:57;8.00;99.90
46117;DHT22;32591;48.102;11.772;2023-03-19T06:38:24;8.10;99.90
46117;DHT22;32591;48.102;11.772;2023-03-19T06:40:51;8.10;99.90
46117;DHT22;32591;48.102;11.772;2023-03-19T06:43:18;8.10;99.90
46117;DHT22;32591;48.102;11.772;2023-03-19T06:45:46;8.30;99.90
46117;DHT22;32591;48.102;11.772;2023-03-19T06:48:13;8.20;99.90
46117;DHT22;32591;48.102;11.772;2023-03-19T06:50:40;8.20;99.90
46117;DHT22;32591;48.102;11.772;2023-03-19T06:53:07;8.40;99.90
46117;DHT22;32591;48.102;11.772;2023-03-19T06:55:34;8.20;99.90
46117;DHT22;32591;48.102;11.772;2023-03-19T06:58:01;8.20;99.90
46117;DHT22;32591;48.102;11.772;2023-03-19T07:00:28;8.20;99.90
46117;DHT22;32591;48.102;11.772;2023-03-19T07:02:57;8.30;99.90
46117;DHT22;32591;48.102;11.772;2023-03-19T07:05:23;8.30;99.90
46117;DHT22;32591;48.102;11.772;2023-03-19T07:07:51;8.40;99.90
46117;DHT22;32591;48.102;11.772;2023-03-19T07:10:18;8.40;99.90
46117;DHT22;32591;48.102;11.772;2023-03-19T07:12:45;8.50;99.90
46117;DHT22;32591;48.102;11.772;2023-03-19T07:15:12;8.60;99.90
46117;DHT22;32591;48.102;11.772;2023-03-19T07:17:39;8.60;99.90
46117;DHT22;32591;48.102;11.772;2023-03-19T07:20:08;8.60;99.90
46117;DHT22;32591;48.102;11.772;2023-03-19T07:22:36;8.60;99.90
46117;DHT22;32591;48.102;11.772;2023-03-19T07:25:03;8.60;99.90
46117;DHT22;32591;48.102;11.772;2023-03-19T07:27:30;8.60;99.90
46117;DHT22;32591;48.102;11.772;2023-03-19T07:29:57;8.70;99.90
46117;DHT22;32591;48.102;11.772;2023-03-19T07:32:24;8.70;99.90
46117;DHT22;32591;48.102;11.772;2023-03-19T07:34:51;8.80;99.90
46117;DHT22;32591;48.102;11.772;2023-03-19T07:37:19;8.90;99.90
46117;DHT22;32591;48.102;11.772;2023-03-19T07:39:46;8.90;99.90
46117;DHT22;32591;48.102;11.772;2023-03-19T07:42:12;9.30;99.90
46117;DHT22;32591;48.102;11.772;2023-03-19T07:44:39;9.00;99.90
46117;DHT22;32591;48.102;11.772;2023-03-19T07:47:06;9.00;99.90
46117;DHT22;32591;48.102;11.772;2023-03-19T07:49:33;9.00;99.90
46117;DHT22;32591;48.102;11.772;2023-03-19T07:52:00;9.00;99.90
46117;DHT22;32591;48.102;11.772;2023-03-19T07:54:28;9.00;99.90
46117;DHT22;32591;48.102;11.772;2023-03-19T07:56:55;9.00;99.90
46117;DHT22;32591;48.102;11.772;2023-03-19T07:59:22;9.10;99.90
46117;DHT22;32591;48.102;11.772;2023-03-19T08:01:49;9.20;99.90
46117;DHT22;32591;48.102;11.772;2023-03-19T08:04:16;9.20;99.90
46117;DHT22;32591;48.102;11.772;2023-03-19T08:06:43;9.30;99.90
46117;DHT22;32591;48.102;11.772;2023-03-19T08:09:10;9.30;99.90
46117;DHT22;32591;48.102;11.772;2023-03-19T08:11:39;9.40;99.90
46117;DHT22;32591;48.102;11.772;2023-03-19T08:14:06;9.50;99.90
46117;DHT22;32591;48.102;11.772;2023-03-19T08:16:32;9.50;99.90
46117;DHT22;32591;48.102;11.772;2023-03-19T08:19:00;9.50;99.90
46117;DHT22;32591;48.102;11.772;2023-03-19T08:21:27;9.60;99.90
46117;DHT22;32591;48.102;11.772;2023-03-19T08:23:57;9.70;99.90
46117;DHT22;32591;48.102;11.772;2023-03-19T08:26:24;9.70;99.90
46117;DHT22;32591;48.102;11.772;2023-03-19T08:28:53;9.70;99.90
46117;DHT22;32591;48.102;11.772;2023-03-19T08:31:20;9.70;99.90
46117;DHT22;32591;48.102;11.772;2023-03-19T08:33:46;9.90;99.90
46117;DHT22;32591;48.102;11.772;2023-03-19T08:36:13;9.80;99.90
46117;DHT22;32591;48.102;11.772;2023-03-19T08:38:40;9.70;99.90
46117;DHT22;32591;48.102;11.772;2023-03-19T08:41:07;9.70;99.90
46117;DHT22;32591;48.102;11.772;2023-03-19T08:43:35;9.80;99.90
46117;DHT22;32591;48.102;11.772;2023-03-19T08:46:04;9.80;99.90
46117;DHT22;32591;48.102;11.772;2023-03-19T08:48:31;9.80;99.90
46117;DHT22;32591;48.102;11.772;2023-03-19T08:50:59;9.90;99.90
46117;DHT22;32591;48.102;11.772;2023-03-19T08:53:27;10.00;99.90
46117;DHT22;32591;48.102;11.772;2023-03-19T08:55:55;10.10;99.90
46117;DHT22;32591;48.102;11.772;2023-03-19T08:58:25;10.10;99.90
46117;DHT22;32591;48.102;11.772;2023-03-19T09:00:52;10.10;99.90
46117;DHT22;32591;48.102;11.772;2023-03-19T09:03:22;10.10;99.90
46117;DHT22;32591;48.102;11.772;2023-03-19T09:05:48;10.10;99.90
46117;DHT22;32591;48.102;11.772;2023-03-19T09:08:15;10.10;99.90
46117;DHT22;32591;48.102;11.772;2023-03-19T09:10:43;10.10;99.90
46117;DHT22;32591;48.102;11.772;2023-03-19T09:13:09;10.20;99.90
46117;DHT22;32591;48.102;11.772;2023-03-19T09:15:36;10.20;99.90
46117;DHT22;32591;48.102;11.772;2023-03-19T09:18:03;10.10;99.90
46117;DHT22;32591;48.102;11.772;2023-03-19T09:20:31;10.20;99.90
46117;DHT22;32591;48.102;11.772;2023-03-19T09:22:58;10.30;99.90
46117;DHT22;32591;48.102;11.772;2023-03-19T09:25:25;10.30;99.90
46117;DHT22;32591;48.102;11.772;2023-03-19T09:27:52;10.40;99.90
46117;DHT22;32591;48.102;11.772;2023-03-19T09:30:19;10.40;99.90
46117;DHT22;32591;48.102;11.772;2023-03-19T09:32:46;10.60;99.90
46117;DHT22;32591;48.102;11.772;2023-03-19T09:35:12;10.60;99.90
46117;DHT22;32591;48.102;11.772;2023-03-19T09:37:41;10.60;99.90
46117;DHT22;32591;48.102;11.772;2023-03-19T09:40:09;10.70;99.90
46117;DHT22;32591;48.102;11.772;2023-03-19T09:42:48;10.80;99.90
46117;DHT22;32591;48.102;11.772;2023-03-19T09:45:19;10.70;99.90
46117;DHT22;32591;48.102;11.772;2023-03-19T09:47:47;10.80;99.90
46117;DHT22;32591;48.102;11.772;2023-03-19T09:50:16;10.90;99.90
46117;DHT22;32591;48.102;11.772;2023-03-19T09:52:46;11.00;99.90
46117;DHT22;32591;48.102;11.772;2023-03-19T09:55:19;11.10;99.90
46117;DHT22;32591;48.102;11.772;2023-03-19T09:57:54;11.30;99.90
46117;DHT22;32591;48.102;11.772;2023-03-19T10:00:23;11.30;99.90
46117;DHT22;32591;48.102;11.772;2023-03-19T10:02:52;11.20;99.90
46117;DHT22;32591;48.102;11.772;2023-03-19T10:05:24;11.20;99.90
46117;DHT22;32591;48.102;11.772;2023-03-19T10:08:00;11.50;99.90
46117;DHT22;32591;48.102;11.772;2023-03-19T10:10:37;11.60;99.90
46117;DHT22;32591;48.102;11.772;2023-03-19T10:13:12;11.60;99.90
46117;DHT22;32591;48.102;11.772;2023-03-19T10:15:43;11.70;99.90
46117;DHT22;32591;48.102;11.772;2023-03-19T10:18:11;11.80;99.90
46117;DHT22;32591;48.102;11.772;2023-03-19T10:20:43;11.80;99.90
46117;DHT22;32591;48.102;11.772;2023-03-19T10:23:21;11.90;99.90
46117;DHT22;32591;48.102;11.772;2023-03-19T10:25:53;11.90;99.90
46117;DHT22;32591;48.102;11.772;2023-03-19T10:28:21;12.10;99.90
46117;DHT22;32591;48.102;11.772;2023-03-19T10:30:49;12.20;99.90
46117;DHT22;32591;48.102;11.772;2023-03-19T10:33:21;12.30;99.90
46117;DHT22;32591;48.102;11.772;2023-03-19T10:35:53;12.30;99.90
46117;DHT22;32591;48.102;11.772;2023-03-19T10:38:24;12.40;99.90
46117;DHT22;32591;48.102;11.772;2023-03-19T10:41:00;12.70;99.90
46117;DHT22;32591;48.102;11.772;2023-03-19T10:43:31;12.90;99.90
46117;DHT22;32591;48.102;11.772;2023-03-19T10:45:59;12.90;99.90
46117;DHT22;32591;48.102;11.772;2023-03-19T10:48:26;12.70;99.90
46117;DHT22;32591;48.102;11.772;2023-03-19T10:50:55;12.50;99.90
46117;DHT22;32591;48.102;11.772;2023-03-19T10:53:29;12.50;99.90
46117;DHT22;32591;48.102;11.772;2023-03-19T10:55:59;12.40;99.90
46117;DHT22;32591;48.102;11.772;2023-03-19T10:58:28;12.50;99.90
46117;DHT22;32591;48.102;11.772;2023-03-19T11:00:57;12.60;99.90
46117;DHT22;32591;48.102;11.772;2023-03-19T11:03:28;12.60;99.90
46117;DHT22;32591;48.102;11.772;2023-03-19T11:06:04;12.70;99.90
46117;DHT22;32591;48.102;11.772;2023-03-19T11:08:34;12.90;99.90
46117;DHT22;32591;48.102;11.772;2023-03-19T11:11:02;12.90;99.90
46117;DHT22;32591;48.102;11.772;2023-03-19T11:13:29;12.90;99.90
46117;DHT22;32591;48.102;11.772;2023-03-19T11:15:56;12.90;99.90
46117;DHT22;32591;48.102;11.772;2023-03-19T11:18:27;12.70;99.90
46117;DHT22;32591;48.102;11.772;2023-03-19T11:20:56;12.60;99.90
46117;DHT22;32591;48.102;11.772;2023-03-19T11:23:26;12.80;99.90
46117;DHT22;32591;48.102;11.772;2023-03-19T11:25:58;12.60;99.90
46117;DHT22;32591;48.102;11.772;2023-03-19T11:28:27;12.70;99.90
46117;DHT22;32591;48.102;11.772;2023-03-19T11:30:59;12.60;99.90
46117;DHT22;32591;48.102;11.772;2023-03-19T11:33:33;12.70;99.90
46117;DHT22;32591;48.102;11.772;2023-03-19T11:36:08;12.80;99.90
46117;DHT22;32591;48.102;11.772;2023-03-19T11:38:39;12.80;99.90
46117;DHT22;32591;48.102;11.772;2023-03-19T11:41:17;12.80;99.90
46117;DHT22;32591;48.102;11.772;2023-03-19T11:43:49;12.80;99.90
46117;DHT22;32591;48.102;11.772;2023-03-19T11:46:20;12.90;99.90
46117;DHT22;32591;48.102;11.772;2023-03-19T11:49:02;12.90;99.90
46117;DHT22;32591;48.102;11.772;2023-03-19T11:51:34;13.00;99.90
46117;DHT22;32591;48.102;11.772;2023-03-19T11:54:04;13.10;99.90
46117;DHT22;32591;48.102;11.772;2023-03-19T11:56:38;13.10;99.90
46117;DHT22;32591;48.102;11.772;2023-03-19T11:59:20;13.20;99.90
46117;DHT22;32591;48.102;11.772;2023-03-19T12:01:59;13.30;99.90
46117;DHT22;32591;48.102;11.772;2023-03-19T12:04:43;13.50;99.90
46117;DHT22;32591;48.102;11.772;2023-03-19T12:07:18;13.70;99.90
46117;DHT22;32591;48.102;11.772;2023-03-19T12:09:52;13.80;99.90
46117;DHT22;32591;48.102;11.772;2023-03-19T12:12:25;13.90;99.90
46117;DHT22;32591;48.102;11.772;2023-03-19T12:14:59;14.00;99.90
46117;DHT22;32591;48.102;11.772;2023-03-19T12:17:36;14.00;99.90
46117;DHT22;32591;48.102;11.772;2023-03-19T12:20:19;14.10;99.90
46117;DHT22;32591;48.102;11.772;2023-03-19T12:22:54;14.00;99.90
46117;DHT22;32591;48.102;11.772;2023-03-19T12:25:32;14.00;99.90
46117;DHT22;32591;48.102;11.772;2023-03-19T12:28:09;13.90;99.90
46117;DHT22;32591;48.102;11.772;2023-03-19T12:30:41;14.20;99.90
46117;DHT22;32591;48.102;11.772;2023-03-19T12:33:15;14.40;99.90
46117;DHT22;32591;48.102;11.772;2023-03-19T12:35:52;14.30;99.90
46117;DHT22;32591;48.102;11.772;2023-03-19T12:38:22;14.20;99.90
46117;DHT22;32591;48.102;11.772;2023-03-19T12:40:53;14.10;99.90
46117;DHT22;32591;48.102;11.772;2023-03-19T12:43:24;14.20;99.90
46117;DHT22;32591;48.102;11.772;2023-03-19T12:45:54;14.40;99.90
46117;DHT22;32591;48.102;11.772;2023-03-19T12:48:24;14.60;99.90
46117;DHT22;32591;48.102;11.772;2023-03-19T12:50:55;14.60;99.90
46117;DHT22;32591;48.102;11.772;2023-03-19T12:53:25;14.70;99.90
46117;DHT22;32591;48.102;11.772;2023-03-19T12:55:56;14.70;99.90
46117;DHT22;32591;48.102;11.772;2023-03-19T12:58:27;14.90;99.90
46117;DHT22;32591;48.102;11.772;2023-03-19T13:01:01;15.10;99.30
46117;DHT22;32591;48.102;11.772;2023-03-19T13:03:36;15.30;99.00
46117;DHT22;32591;48.102;11.772;2023-03-19T13:06:06;15.30;98.40
46117;DHT22;32591;48.102;11.772;2023-03-19T13:08:36;15.40;98.40
46117;DHT22;32591;48.102;11.772;2023-03-19T13:11:08;15.50;96.50
46117;DHT22;32591;48.102;11.772;2023-03-19T13:13:39;15.40;95.40
46117;DHT22;32591;48.102;11.772;2023-03-19T13:16:10;15.20;95.90
46117;DHT22;32591;48.102;11.772;2023-03-19T13:18:42;15.10;94.80
46117;DHT22;32591;48.102;11.772;2023-03-19T13:21:15;15.10;92.10
46117;DHT22;32591;48.102;11.772;2023-03-19T13:23:48;15.30;93.90
46117;DHT22;32591;48.102;11.772;2023-03-19T13:26:17;15.40;93.90
46117;DHT22;32591;48.102;11.772;2023-03-19T13:28:53;15.30;93.80
46117;DHT22;32591;48.102;11.772;2023-03-19T13:31:26;15.20;93.70
46117;DHT22;32591;48.102;11.772;2023-03-19T13:33:59;14.90;94.10
46117;DHT22;32591;48.102;11.772;2023-03-19T13:36:27;14.70;94.60
46117;DHT22;32591;48.102;11.772;2023-03-19T13:38:55;14.60;94.90
46117;DHT22;32591;48.102;11.772;2023-03-19T13:44:39;14.60;95.40
46117;DHT22;32591;48.102;11.772;2023-03-19T13:50:11;14.80;94.20
46117;DHT22;32591;48.102;11.772;2023-03-19T13:52:48;14.80;94.70
46117;DHT22;32591;48.102;11.772;2023-03-19T13:55:33;15.00;95.00
46117;DHT22;32591;48.102;11.772;2023-03-19T13:58:14;15.20;95.20
46117;DHT22;32591;48.102;11.772;2023-03-19T14:04:03;15.30;94.40
46117;DHT22;32591;48.102;11.772;2023-03-19T14:06:31;15.10;93.50
46117;DHT22;32591;48.102;11.772;2023-03-19T14:09:01;15.00;94.10
46117;DHT22;32591;48.102;11.772;2023-03-19T14:11:30;14.90;94.50
46117;DHT22;32591;48.102;11.772;2023-03-19T14:13:59;14.80;94.80
46117;DHT22;32591;48.102;11.772;2023-03-19T14:16:28;14.40;95.20
46117;DHT22;32591;48.102;11.772;2023-03-19T14:18:58;14.70;95.40
46117;DHT22;32591;48.102;11.772;2023-03-19T14:21:33;14.70;95.20
46117;DHT22;32591;48.102;11.772;2023-03-19T14:26:56;14.60;95.00
46117;DHT22;32591;48.102;11.772;2023-03-19T14:29:27;14.60;95.40
46117;DHT22;32591;48.102;11.772;2023-03-19T14:31:55;14.60;95.50
46117;DHT22;32591;48.102;11.772;2023-03-19T14:34:26;14.70;95.50
46117;DHT22;32591;48.102;11.772;2023-03-19T14:36:59;14.70;96.40
46117;DHT22;32591;48.102;11.772;2023-03-19T14:39:27;14.80;96.50
46117;DHT22;32591;48.102;11.772;2023-03-19T14:41:58;14.90;95.90
46117;DHT22;32591;48.102;11.772;2023-03-19T14:44:38;14.90;95.50
46117;DHT22;32591;48.102;11.772;2023-03-19T14:47:34;14.90;96.30
46117;DHT22;32591;48.102;11.772;2023-03-19T14:50:18;15.10;96.20
46117;DHT22;32591;48.102;11.772;2023-03-19T14:52:52;15.10;95.10
46117;DHT22;32591;48.102;11.772;2023-03-19T14:55:27;15.20;95.50
46117;DHT22;32591;48.102;11.772;2023-03-19T14:57:59;15.00;94.20
46117;DHT22;32591;48.102;11.772;2023-03-19T15:00:26;14.90;94.40
46117;DHT22;32591;48.102;11.772;2023-03-19T15:02:53;14.70;94.90
46117;DHT22;32591;48.102;11.772;2023-03-19T15:05:23;14.60;95.20
46117;DHT22;32591;48.102;11.772;2023-03-19T15:07:52;14.70;95.40
46117;DHT22;32591;48.102;11.772;2023-03-19T15:10:21;14.90;94.80
46117;DHT22;32591;48.102;11.772;2023-03-19T15:12:57;15.20;95.70
46117;DHT22;32591;48.102;11.772;2023-03-19T15:15:34;15.50;94.60
46117;DHT22;32591;48.102;11.772;2023-03-19T15:18:09;15.80;92.80
46117;DHT22;32591;48.102;11.772;2023-03-19T15:20:38;16.10;92.90
46117;DHT22;32591;48.102;11.772;2023-03-19T15:23:09;16.30;91.50
46117;DHT22;32591;48.102;11.772;2023-03-19T15:25:43;16.20;91.10
46117;DHT22;32591;48.102;11.772;2023-03-19T15:28:11;16.20;90.70
46117;DHT22;32591;48.102;11.772;2023-03-19T15:30:39;16.20;90.70
46117;DHT22;32591;48.102;11.772;2023-03-19T15:33:15;16.40;90.20
46117;DHT22;32591;48.102;11.772;2023-03-19T15:35:44;16.50;89.80
46117;DHT22;32591;48.102;11.772;2023-03-19T15:38:12;16.50;90.30
46117;DHT22;32591;48.102;11.772;2023-03-19T15:40:40;16.40;90.10
46117;DHT22;32591;48.102;11.772;2023-03-19T15:43:08;16.30;91.10
46117;DHT22;32591;48.102;11.772;2023-03-19T15:45:37;16.30;90.80
46117;DHT22;32591;48.102;11.772;2023-03-19T15:48:06;16.30;90.50
46117;DHT22;32591;48.102;11.772;2023-03-19T15:50:36;16.20;90.20